createdAt,value
2018-07-06T00:00:29.102Z,16.50
2018-07-06T00:03:08.697Z,16.50
2018-07-06T00:05:48.282Z,16.50
2018-07-06T00:08:27.781Z,16.50
2018-07-06T00:11:07.327Z,16.50
2018-07-06T01:14:18.969Z,16.70
2018-07-06T01:16:58.565Z,16.70
2018-07-06T02:13:53.474Z,16.50
2018-07-06T02:16:32.993Z,16.50
2018-07-06T02:24:56.825Z,16.50
2018-07-06T02:27:36.350Z,16.50
2018-07-06T02:30:15.910Z,16.40
2018-07-06T02:32:55.433Z,16.40
2018-07-06T02:35:35.053Z,16.40
2018-07-06T02:38:14.554Z,16.40
2018-07-06T02:40:54.188Z,16.40
2018-07-06T02:43:33.705Z,16.40
2018-07-06T02:46:13.233Z,16.40
2018-07-06T02:48:52.788Z,16.30
2018-07-06T02:51:32.199Z,16.40
2018-07-06T02:54:11.666Z,16.40
2018-07-06T02:56:51.344Z,16.40
2018-07-06T02:59:30.953Z,16.30
2018-07-06T03:02:10.587Z,16.30
2018-07-06T03:04:50.193Z,16.30
2018-07-06T03:07:29.750Z,16.30
2018-07-06T03:10:09.363Z,16.30
2018-07-06T03:15:40.589Z,16.30
2018-07-06T03:18:23.766Z,16.30
2018-07-06T03:23:47.492Z,16.20
2018-07-06T03:26:27.007Z,16.30
2018-07-06T03:29:06.713Z,16.20
2018-07-06T03:31:46.290Z,16.20
2018-07-06T03:34:25.950Z,16.20
2018-07-06T03:37:05.527Z,16.20
2018-07-06T03:39:45.148Z,16.20
2018-07-06T03:42:24.841Z,16.20
2018-07-06T03:45:04.450Z,16.20
2018-07-06T03:47:44.021Z,16.20
2018-07-06T03:50:23.594Z,16.20
2018-07-06T03:53:03.129Z,16.20
2018-07-06T03:55:42.709Z,16.20
2018-07-06T03:58:22.349Z,16.20
2018-07-06T04:01:01.969Z,16.20
2018-07-06T04:03:41.501Z,16.20
2018-07-06T04:06:21.021Z,16.30
2018-07-06T04:09:00.508Z,16.30
2018-07-06T04:11:39.999Z,16.30
2018-07-06T04:14:19.425Z,16.30
2018-07-06T04:16:58.854Z,16.30
2018-07-06T04:25:23.470Z,16.40
2018-07-06T04:28:02.910Z,16.40
2018-07-06T04:30:42.355Z,16.40
2018-07-06T04:33:22.078Z,16.40
2018-07-06T04:36:01.673Z,16.40
2018-07-06T04:38:41.257Z,16.50
2018-07-06T04:41:20.909Z,16.50
2018-07-06T04:44:00.453Z,16.50
2018-07-06T04:46:40.118Z,16.60
2018-07-06T04:49:19.713Z,16.60
2018-07-06T04:51:59.390Z,16.60
2018-07-06T04:54:38.894Z,16.70
2018-07-06T04:57:18.394Z,16.70
2018-07-06T04:59:57.887Z,16.70
2018-07-06T05:02:37.290Z,16.70
2018-07-06T05:05:16.692Z,16.70
2018-07-06T05:07:56.281Z,16.80
2018-07-06T05:10:35.705Z,16.70
2018-07-06T05:13:15.262Z,16.80
2018-07-06T05:15:54.834Z,16.90
2018-07-06T05:27:05.640Z,17.10
2018-07-06T05:29:45.114Z,17.00
2018-07-06T05:32:24.647Z,17.00
2018-07-06T05:35:04.131Z,17.00
2018-07-06T05:37:43.656Z,17.10
2018-07-06T05:40:23.129Z,17.10
2018-07-06T05:43:02.535Z,17.10
2018-07-06T05:45:41.954Z,17.20
2018-07-06T05:48:21.376Z,17.20
2018-07-06T05:51:00.851Z,17.30
2018-07-06T05:53:40.402Z,17.30
2018-07-06T05:56:19.889Z,17.30
2018-07-06T05:58:59.565Z,17.30
2018-07-06T06:01:38.937Z,17.30
2018-07-06T06:04:18.457Z,17.30
2018-07-06T06:06:57.952Z,17.30
2018-07-06T06:09:26.254Z,17.30
2018-07-06T06:11:54.529Z,17.30
2018-07-06T06:14:23.481Z,17.40
2018-07-06T06:16:51.768Z,17.40
2018-07-06T06:19:20.047Z,17.30
2018-07-06T06:22:04.834Z,17.30
2018-07-06T06:27:25.866Z,17.30
2018-07-06T06:29:54.201Z,17.20
2018-07-06T06:32:22.561Z,17.30
2018-07-06T06:34:50.849Z,17.30
2018-07-06T06:37:19.150Z,17.30
2018-07-06T06:39:47.460Z,17.40
2018-07-06T06:42:15.771Z,17.50
2018-07-06T06:44:44.143Z,17.40
2018-07-06T06:47:12.410Z,17.40
2018-07-06T06:49:40.762Z,17.40
2018-07-06T06:52:09.046Z,17.40
2018-07-06T06:54:37.373Z,17.40
2018-07-06T06:57:05.666Z,17.60
2018-07-06T06:59:33.972Z,17.70
2018-07-06T07:02:02.268Z,17.80
2018-07-06T07:04:30.538Z,17.80
2018-07-06T07:06:58.825Z,17.90
2018-07-06T07:09:27.110Z,18.00
2018-07-06T07:11:55.413Z,17.90
2018-07-06T07:14:43.002Z,18.00
2018-07-06T07:25:50.361Z,18.10
2018-07-06T07:28:18.624Z,18.10
2018-07-06T07:30:46.914Z,18.20
2018-07-06T07:33:15.149Z,18.20
2018-07-06T07:35:43.451Z,18.20
2018-07-06T07:38:11.726Z,18.20
2018-07-06T07:40:40.022Z,18.10
2018-07-06T07:43:08.293Z,18.20
2018-07-06T07:45:36.573Z,18.40
2018-07-06T07:48:04.974Z,18.40
2018-07-06T07:50:33.256Z,18.60
2018-07-06T07:53:12.865Z,18.70
2018-07-06T07:55:41.438Z,18.90
2018-07-06T07:58:09.714Z,18.90
2018-07-06T08:00:38.059Z,18.90
2018-07-06T08:03:06.314Z,18.80
2018-07-06T08:05:34.603Z,18.80
2018-07-06T08:08:02.870Z,18.80
2018-07-06T08:10:31.134Z,18.70
2018-07-06T08:15:52.774Z,18.60
2018-07-06T08:18:21.090Z,18.70
2018-07-06T08:26:36.585Z,18.80
2018-07-06T08:29:04.974Z,19.00
2018-07-06T08:31:33.411Z,19.60
2018-07-06T08:34:13.049Z,19.30
2018-07-06T08:37:53.589Z,19.20
2018-07-06T08:40:22.821Z,18.90
2018-07-06T08:42:52.198Z,19.00
2018-07-06T08:45:20.469Z,18.80
2018-07-06T08:47:49.070Z,18.90
2018-07-06T08:50:17.399Z,19.10
2018-07-06T08:52:46.869Z,19.20
2018-07-06T08:55:15.141Z,19.30
2018-07-06T08:57:44.503Z,19.40
2018-07-06T09:00:13.055Z,19.30
2018-07-06T09:02:41.327Z,19.20
2018-07-06T09:05:10.124Z,19.20
2018-07-06T09:07:38.409Z,19.40
2018-07-06T09:10:06.861Z,19.60
2018-07-06T09:12:35.180Z,19.50
2018-07-06T10:12:48.041Z,20.50
2018-07-06T10:15:18.238Z,20.70
2018-07-06T10:17:46.541Z,21.00
2018-07-06T10:20:27.918Z,21.40
2018-07-06T10:25:48.698Z,22.00
2018-07-06T10:28:28.010Z,22.10
2018-07-06T10:31:04.774Z,22.20
2018-07-06T10:33:33.111Z,22.40
2018-07-06T10:36:01.442Z,22.80
2018-07-06T10:38:29.793Z,22.80
2018-07-06T10:40:58.093Z,23.20
2018-07-06T10:43:26.436Z,23.50
2018-07-06T10:45:54.759Z,23.40
2018-07-06T10:48:23.022Z,23.10
2018-07-06T10:50:51.318Z,23.00
2018-07-06T10:53:19.589Z,22.70
2018-07-06T10:55:47.850Z,22.70
2018-07-06T10:58:16.168Z,23.00
2018-07-06T11:00:44.483Z,23.30
2018-07-06T11:03:12.760Z,23.50
2018-07-06T11:05:41.057Z,23.70
2018-07-06T11:08:09.327Z,23.60
2018-07-06T11:10:37.619Z,23.80
2018-07-06T11:13:05.937Z,23.90
2018-07-06T11:18:34.929Z,23.60
2018-07-06T11:26:45.377Z,23.80
2018-07-06T11:29:13.701Z,23.90
2018-07-06T11:31:42.054Z,23.70
2018-07-06T11:34:10.381Z,23.70
2018-07-06T11:36:38.738Z,23.60
2018-07-06T11:39:07.531Z,23.80
2018-07-06T11:41:36.570Z,23.90
2018-07-06T11:44:04.946Z,23.70
2018-07-06T11:46:33.250Z,23.60
2018-07-06T11:49:01.616Z,23.60
2018-07-06T11:51:29.913Z,23.50
2018-07-06T11:53:58.393Z,24.00
2018-07-06T11:56:26.708Z,23.80
2018-07-06T11:58:54.992Z,24.00
2018-07-06T12:01:23.296Z,24.20
2018-07-06T12:03:51.621Z,24.50
2018-07-06T12:06:19.872Z,24.60
2018-07-06T12:08:48.170Z,24.40
2018-07-06T12:11:16.454Z,24.20
2018-07-06T12:16:37.373Z,24.20
2018-07-06T12:19:05.654Z,24.20
2018-07-06T12:21:33.963Z,24.30
2018-07-06T12:24:02.261Z,24.60
2018-07-06T12:26:30.522Z,24.70
2018-07-06T12:28:58.792Z,24.80
2018-07-06T12:31:27.078Z,24.30
2018-07-06T12:33:55.386Z,24.40
2018-07-06T12:36:23.735Z,24.40
2018-07-06T12:38:51.965Z,24.40
2018-07-06T12:41:20.278Z,24.50
2018-07-06T12:43:48.676Z,24.90
2018-07-06T12:46:16.978Z,24.80
2018-07-06T12:48:45.298Z,24.80
2018-07-06T12:51:13.577Z,24.80
2018-07-06T12:53:41.865Z,25.20
2018-07-06T12:56:10.121Z,25.10
2018-07-06T12:58:38.433Z,25.20
2018-07-06T13:01:06.722Z,25.00
2018-07-06T13:03:34.978Z,24.90
2018-07-06T13:06:03.265Z,25.10
2018-07-06T13:08:31.570Z,24.90
2018-07-06T13:10:59.871Z,25.00
2018-07-06T13:13:28.677Z,24.80
2018-07-06T13:15:56.962Z,24.90
2018-07-06T13:18:25.234Z,24.60
2018-07-06T13:21:23.466Z,24.80
2018-07-06T13:23:51.733Z,24.70
2018-07-06T13:26:20.039Z,24.40
2018-07-06T13:28:48.314Z,24.40
2018-07-06T13:31:16.583Z,24.40
2018-07-06T13:33:44.880Z,24.70
2018-07-06T13:36:13.243Z,24.70
2018-07-06T13:38:41.533Z,25.00
2018-07-06T13:41:09.838Z,25.10
2018-07-06T13:43:38.092Z,25.30
2018-07-06T13:46:06.381Z,25.10
2018-07-06T13:48:34.674Z,25.10
2018-07-06T13:51:02.953Z,25.10
2018-07-06T13:53:31.249Z,25.10
2018-07-06T13:55:59.538Z,25.30
2018-07-06T13:58:27.806Z,25.50
2018-07-06T14:00:56.086Z,25.00
2018-07-06T14:03:24.349Z,25.00
2018-07-06T14:05:52.662Z,25.20
2018-07-06T14:08:20.962Z,25.10
2018-07-06T14:10:49.263Z,25.20
2018-07-06T14:13:17.561Z,25.30
2018-07-06T14:18:38.559Z,25.00
2018-07-06T14:24:10.054Z,25.30
2018-07-06T15:18:18.687Z,24.40
2018-07-06T15:23:25.897Z,24.60
2018-07-06T15:25:54.237Z,24.90
2018-07-06T15:28:22.545Z,24.90
2018-07-06T15:30:50.878Z,24.70
2018-07-06T15:33:19.197Z,24.80
2018-07-06T15:35:47.561Z,24.60
2018-07-06T15:38:15.910Z,24.60
2018-07-06T15:40:44.348Z,24.50
2018-07-06T15:43:13.997Z,24.60
2018-07-06T15:45:42.310Z,24.30
2018-07-06T15:48:10.674Z,24.40
2018-07-06T15:50:39.251Z,24.40
2018-07-06T15:53:07.991Z,24.30
2018-07-06T15:55:36.881Z,24.50
2018-07-06T15:58:05.358Z,24.60
2018-07-06T16:00:33.670Z,24.50
2018-07-06T16:03:01.962Z,24.50
2018-07-06T16:05:30.267Z,24.20
2018-07-06T16:07:58.557Z,24.00
2018-07-06T16:10:27.770Z,23.90
2018-07-06T16:24:49.507Z,23.80
2018-07-06T16:27:20.035Z,23.80
2018-07-06T16:29:48.388Z,24.10
2018-07-06T16:32:16.755Z,24.30
2018-07-06T16:34:45.041Z,24.10
2018-07-06T16:37:13.346Z,23.80
2018-07-06T16:39:41.645Z,23.60
2018-07-06T16:42:09.982Z,23.60
2018-07-06T16:44:38.330Z,23.50
2018-07-06T16:47:06.653Z,23.40
2018-07-06T16:49:34.973Z,23.20
2018-07-06T16:52:03.366Z,23.10
2018-07-06T16:54:31.689Z,23.20
2018-07-06T16:56:59.965Z,23.00
2018-07-06T16:59:28.258Z,23.10
2018-07-06T17:01:56.533Z,23.00
2018-07-06T17:04:24.829Z,22.90
2018-07-06T17:06:53.101Z,22.70
2018-07-06T17:09:21.389Z,22.70
2018-07-06T17:11:49.666Z,22.60
2018-07-06T17:17:11.345Z,22.50
2018-07-06T18:20:18.989Z,20.00
2018-07-06T18:22:55.957Z,20.10
2018-07-06T18:25:24.730Z,20.00
2018-07-06T18:27:53.074Z,19.90
2018-07-06T18:30:21.403Z,19.90
2018-07-06T18:32:49.745Z,19.70
2018-07-06T18:35:18.045Z,19.60
2018-07-06T18:37:46.563Z,19.40
2018-07-06T18:40:14.888Z,19.30
2018-07-06T18:42:43.240Z,19.30
2018-07-06T18:45:11.591Z,19.10
2018-07-06T18:47:40.020Z,19.00
2018-07-06T18:50:08.286Z,18.90
2018-07-06T18:52:36.609Z,18.80
2018-07-06T18:55:04.907Z,18.60
2018-07-06T18:57:33.219Z,18.40
2018-07-06T19:00:01.511Z,18.30
2018-07-06T19:02:29.806Z,18.10
2018-07-06T19:04:58.087Z,18.00
2018-07-06T19:07:26.381Z,17.90
2018-07-06T19:09:54.701Z,17.90
2018-07-06T19:12:22.981Z,17.80
2018-07-06T19:14:52.613Z,17.70
2018-07-06T19:17:20.897Z,17.60
2018-07-06T19:19:50.123Z,17.50
2018-07-06T19:22:19.117Z,17.50
2018-07-06T19:24:49.855Z,17.40
2018-07-06T19:27:18.245Z,17.40
2018-07-06T19:29:46.487Z,17.40
2018-07-06T19:32:14.791Z,17.40
2018-07-06T19:34:43.089Z,17.30
2018-07-06T19:37:11.377Z,17.30
2018-07-06T19:39:39.637Z,17.20
2018-07-06T19:42:07.905Z,17.20
2018-07-06T19:44:36.222Z,17.10
2018-07-06T19:47:04.518Z,17.10
2018-07-06T19:49:32.808Z,17.00
2018-07-06T19:52:01.091Z,17.00
2018-07-06T19:54:29.382Z,17.00
2018-07-06T19:56:57.665Z,17.00
2018-07-06T19:59:25.957Z,16.90
2018-07-06T20:01:54.264Z,16.90
2018-07-06T20:04:22.531Z,16.90
2018-07-06T20:06:50.805Z,16.80
2018-07-06T20:09:19.085Z,16.80
2018-07-06T20:11:47.390Z,16.70
2018-07-06T20:14:16.214Z,16.70
2018-07-06T20:16:44.512Z,16.70
2018-07-06T20:22:27.351Z,16.60
2018-07-06T21:19:26.679Z,15.70
2018-07-06T21:21:55.185Z,17.60
2018-07-06T21:24:23.637Z,15.60
2018-07-06T21:26:52.085Z,15.60
2018-07-06T21:29:20.438Z,15.60
2018-07-06T21:31:48.740Z,15.60
2018-07-06T21:34:17.582Z,15.60
2018-07-06T21:36:45.893Z,15.60
2018-07-06T21:39:14.555Z,15.50
2018-07-06T21:41:42.902Z,15.50
2018-07-06T21:44:11.237Z,15.40
2018-07-06T21:46:39.574Z,15.40
2018-07-06T21:49:07.925Z,15.40
2018-07-06T21:51:36.245Z,15.30
2018-07-06T21:54:04.511Z,15.40
2018-07-06T21:56:32.818Z,15.40
2018-07-06T21:59:01.098Z,15.40
2018-07-06T22:01:29.385Z,15.40
2018-07-06T22:03:57.703Z,15.40
2018-07-06T22:06:26.001Z,15.40
2018-07-06T22:08:54.289Z,15.40
2018-07-06T22:11:22.565Z,15.40
2018-07-06T22:19:39.838Z,15.30
2018-07-06T23:16:16.670Z,14.90
